Strona główna
METAR-TAF:

METAR-TAF

Lotnisko :

Port lotniczy Touho

Touho, Nowa Kaledonia

Szerokość geograficzna: 20-47-25S, Długość geograficzna: 165-15-34E, wysokość: 3 m

METAR: brakujący

czas: 13:10 (02:10 UTC)

Prognoza

Raport powstał 9 godziny i 10 minut temu, godzina 17:00 UTC
Prognoza ważna od 16 godzina 18 UTC do 17 godzina 18 UTC
Wiatr 12 kt od południowy wschód
Widzialność 10 km lub więcej
Rozproszone chmury na wysokości 2300 ft
Przerywane chmury na wysokości 5000 ft
Przejściowo
od 16 godzina 18 UTC do 17 godzina 18 UTC
Widzialność: 4000 m
Przerywane chmury na wysokości 1500 ft
Mało chmury na wysokości 2000 ft, Cumulusy wypiętrznone.
przelotny opad deszczu

TAF: NWWU 161700Z 1618/1718 13012KT 9999 SCT023 BKN050 TEMPO 1618/1718 4000 SHRA BKN015 FEW020TCU

Obserwacja i prognoza pogody dla ponad 4000 lotnisk (raport METAR i TAF).

Dostępne stacje oznaczono żółtymi i czerwonymi punktami na mapie.

Najedź kursorem aby zobaczyć nazwę stacji.

Kliknij aby zobaczyć obserwacje i prognozy pogody.

Aby zmienić mapę: kliknij na zielony przycisk z czarnym krzyżykiem, aby powiększyć; na zielony przycisk z myślnikiem, aby pomniejszyć; na zielone strzałki, aby przejść do map sąsiednich.


METAR-TAF: